createdAt,value
2022-12-11T00:02:08.349Z,23.42
2022-12-11T00:04:35.284Z,21.80
2022-12-11T00:07:02.374Z,16.08
2022-12-11T00:09:29.722Z,12.25
2022-12-11T00:11:56.979Z,10.68
2022-12-11T00:14:23.849Z,11.32
2022-12-11T00:16:50.785Z,11.23
2022-12-11T00:19:18.407Z,11.15
2022-12-11T00:21:45.237Z,10.43
2022-12-11T00:24:12.148Z,10.07
2022-12-11T00:26:39.220Z,10.63
2022-12-11T00:29:08.195Z,9.13
2022-12-11T00:31:35.132Z,8.63
2022-12-11T00:34:02.937Z,8.30
2022-12-11T00:36:29.774Z,8.13
2022-12-11T00:38:56.591Z,8.18
2022-12-11T00:41:23.839Z,7.13
2022-12-11T00:43:50.954Z,7.00
2022-12-11T00:46:18.163Z,6.78
2022-12-11T00:48:46.208Z,6.95
2022-12-11T00:51:13.172Z,7.15
2022-12-11T00:53:40.055Z,8.80
2022-12-11T00:56:16.900Z,8.85
2022-12-11T00:58:44.320Z,9.40
2022-12-11T01:01:15.547Z,8.35
2022-12-11T01:03:42.582Z,8.63
2022-12-11T01:06:14.311Z,8.63
2022-12-11T01:08:41.373Z,8.10
2022-12-11T01:11:10.895Z,7.90
2022-12-11T01:13:38.978Z,9.18
2022-12-11T01:16:11.269Z,8.65
2022-12-11T01:18:38.410Z,9.35
2022-12-11T01:21:07.361Z,8.75
2022-12-11T01:26:09.840Z,8.82
2022-12-11T01:28:38.411Z,9.32
2022-12-11T01:31:13.301Z,9.65
2022-12-11T01:33:40.285Z,9.60
2022-12-11T01:36:16.906Z,9.88
2022-12-11T01:38:45.087Z,9.77
2022-12-11T01:41:12.834Z,9.63
2022-12-11T01:44:27.636Z,10.02
2022-12-11T01:46:54.705Z,10.43
2022-12-11T01:49:26.095Z,10.45
2022-12-11T01:51:55.426Z,12.65
2022-12-11T01:54:24.089Z,13.13
2022-12-11T01:56:52.940Z,14.48
2022-12-11T01:59:26.236Z,13.97
2022-12-11T02:02:01.387Z,13.45
2022-12-11T02:04:29.853Z,15.90
2022-12-11T02:06:56.827Z,13.63
2022-12-11T02:09:31.691Z,11.85
2022-12-11T02:12:16.187Z,10.85
2022-12-11T02:17:57.210Z,10.07
2022-12-11T02:20:34.746Z,9.52
2022-12-11T02:23:32.418Z,9.07
2022-12-11T02:26:03.895Z,9.25
2022-12-11T02:28:38.202Z,8.45
2022-12-11T02:31:22.405Z,8.23
2022-12-11T02:33:58.450Z,9.30
2022-12-11T02:36:29.087Z,9.48
2022-12-11T02:38:58.902Z,9.38
2022-12-11T02:41:28.801Z,9.65
2022-12-11T02:43:57.401Z,9.25
2022-12-11T02:46:25.431Z,9.05
2022-12-11T02:48:53.970Z,8.57
2022-12-11T02:51:26.935Z,9.05
2022-12-11T02:53:57.835Z,9.23
2022-12-11T02:56:32.681Z,9.30
2022-12-11T02:59:09.180Z,9.18
2022-12-11T03:01:36.108Z,8.98
2022-12-11T03:04:03.024Z,9.18
2022-12-11T03:06:36.434Z,10.85
2022-12-11T03:09:05.552Z,12.63
2022-12-11T03:11:32.450Z,13.35
2022-12-11T03:14:02.883Z,12.68
2022-12-11T03:16:38.994Z,13.32
2022-12-11T03:19:18.245Z,12.95
2022-12-11T03:22:20.898Z,13.75
2022-12-11T03:25:00.044Z,15.77
2022-12-11T03:27:48.971Z,12.88
2022-12-11T03:30:21.709Z,14.70
2022-12-11T03:33:02.010Z,11.95
2022-12-11T03:38:15.912Z,11.55
2022-12-11T03:40:46.304Z,17.77
2022-12-11T03:43:14.779Z,12.10
2022-12-11T03:45:43.046Z,11.05
2022-12-11T03:48:13.553Z,12.13
2022-12-11T03:50:41.760Z,11.98
2022-12-11T03:53:08.965Z,12.13
2022-12-11T03:55:37.743Z,12.50
2022-12-11T03:58:05.207Z,11.73
2022-12-11T04:00:32.298Z,12.00
2022-12-11T04:03:15.149Z,12.50
2022-12-11T04:05:44.546Z,12.15
2022-12-11T04:08:11.717Z,13.20
2022-12-11T04:10:39.408Z,12.45
2022-12-11T04:13:07.897Z,12.85
2022-12-11T04:15:35.127Z,12.55
2022-12-11T04:18:20.516Z,13.05
2022-12-11T04:21:06.599Z,11.75
2022-12-11T04:23:51.911Z,11.70
2022-12-11T04:26:21.077Z,11.43
2022-12-11T04:28:49.039Z,12.93
2022-12-11T04:31:18.810Z,11.45
2022-12-11T04:36:13.387Z,11.00
2022-12-11T04:38:40.846Z,11.13
2022-12-11T04:41:11.042Z,11.63
2022-12-11T04:43:38.451Z,10.90
2022-12-11T04:46:07.884Z,10.57
2022-12-11T04:48:36.283Z,10.35
2022-12-11T04:51:03.490Z,10.75
2022-12-11T04:53:31.047Z,10.18
2022-12-11T04:55:57.946Z,10.00
2022-12-11T04:58:25.506Z,10.38
2022-12-11T05:00:52.682Z,10.18
2022-12-11T05:03:19.798Z,10.20
2022-12-11T05:05:51.799Z,9.80
2022-12-11T05:08:22.553Z,9.85
2022-12-11T05:10:57.716Z,9.90
2022-12-11T05:13:25.095Z,9.98
2022-12-11T05:15:51.952Z,8.98
2022-12-11T05:18:18.974Z,10.40
2022-12-11T05:20:54.325Z,10.23
2022-12-11T05:23:21.987Z,10.00
2022-12-11T05:25:56.396Z,9.77
2022-12-11T05:28:27.859Z,10.40
2022-12-11T05:31:14.204Z,9.65
2022-12-11T05:33:41.589Z,9.88
2022-12-11T05:36:10.115Z,9.52
2022-12-11T05:38:36.990Z,9.25
2022-12-11T05:41:06.655Z,9.82
2022-12-11T05:46:13.732Z,7.60
2022-12-11T05:48:42.986Z,9.00
2022-12-11T05:51:10.992Z,9.07
2022-12-11T05:53:39.019Z,9.70
2022-12-11T05:56:12.451Z,9.50
2022-12-11T05:58:39.612Z,8.45
2022-12-11T06:01:37.305Z,9.10
2022-12-11T06:04:06.821Z,11.65
2022-12-11T06:06:36.427Z,11.85
2022-12-11T06:11:32.838Z,15.63
2022-12-11T06:14:02.121Z,14.02
2022-12-11T06:16:29.085Z,17.58
2022-12-11T06:18:58.443Z,17.95
2022-12-11T06:21:34.593Z,20.70
2022-12-11T06:24:03.883Z,15.45
2022-12-11T06:26:32.074Z,13.88
2022-12-11T06:28:59.226Z,16.33
2022-12-11T06:31:26.409Z,17.05
2022-12-11T06:33:53.353Z,19.45
2022-12-11T06:36:22.475Z,18.45
2022-12-11T06:38:50.321Z,18.45
2022-12-11T06:41:18.707Z,20.27
2022-12-11T06:43:45.635Z,22.27
2022-12-11T06:46:17.415Z,23.85
2022-12-11T06:48:44.842Z,19.70
2022-12-11T06:51:17.069Z,22.35
2022-12-11T06:53:45.371Z,20.08
2022-12-11T06:56:14.550Z,18.98
2022-12-11T06:58:42.525Z,19.55
2022-12-11T07:01:18.950Z,19.48
2022-12-11T07:03:46.438Z,17.67
2022-12-11T07:06:13.978Z,20.85
2022-12-11T07:08:41.227Z,17.38
2022-12-11T07:11:10.435Z,18.77
2022-12-11T07:13:37.443Z,17.05
2022-12-11T07:16:10.785Z,16.30
2022-12-11T07:18:40.597Z,17.23
2022-12-11T07:21:08.415Z,12.80
2022-12-11T07:23:36.127Z,14.07
2022-12-11T07:26:07.997Z,15.02
2022-12-11T07:28:35.874Z,14.57
2022-12-11T07:31:11.023Z,16.52
2022-12-11T07:33:37.942Z,15.90
2022-12-11T07:36:06.563Z,17.00
2022-12-11T07:38:34.288Z,13.70
2022-12-11T07:41:03.258Z,14.98
2022-12-11T07:43:30.117Z,15.35
2022-12-11T07:46:02.667Z,17.02
2022-12-11T07:48:29.755Z,16.10
2022-12-11T07:50:56.650Z,14.60
2022-12-11T07:53:23.784Z,13.57
2022-12-11T07:55:50.620Z,12.80
2022-12-11T07:58:17.523Z,12.05
2022-12-11T08:00:45.578Z,13.23
2022-12-11T08:03:12.364Z,13.05
2022-12-11T08:05:39.288Z,12.43
2022-12-11T08:08:06.132Z,12.57
2022-12-11T08:10:33.024Z,11.95
2022-12-11T08:13:00.612Z,13.70
2022-12-11T08:15:27.428Z,15.93
2022-12-11T08:17:54.570Z,15.30
2022-12-11T08:20:21.711Z,16.98
2022-12-11T08:22:48.542Z,15.50
2022-12-11T08:25:15.459Z,16.13
2022-12-11T08:27:42.319Z,14.38
2022-12-11T08:30:10.331Z,16.58
2022-12-11T08:32:37.212Z,21.77
2022-12-11T08:35:04.583Z,23.58
2022-12-11T08:37:36.659Z,24.20
2022-12-11T08:40:04.176Z,21.35
2022-12-11T08:42:31.040Z,15.13
2022-12-11T08:44:58.382Z,15.45
2022-12-11T08:47:25.321Z,14.55
2022-12-11T08:49:52.846Z,13.55
2022-12-11T08:52:19.942Z,13.13
2022-12-11T08:54:46.869Z,14.38
2022-12-11T08:57:13.729Z,11.57
2022-12-11T08:59:49.646Z,11.35
2022-12-11T09:02:17.613Z,12.90
2022-12-11T09:04:44.516Z,9.95
2022-12-11T09:07:12.403Z,9.88
2022-12-11T09:09:39.296Z,10.10
2022-12-11T09:12:06.319Z,9.13
2022-12-11T09:14:33.275Z,8.48
2022-12-11T09:17:00.185Z,8.90
2022-12-11T09:19:32.062Z,8.07
2022-12-11T09:21:59.475Z,7.88
2022-12-11T09:24:26.407Z,8.60
2022-12-11T09:26:54.702Z,7.30
2022-12-11T09:29:28.753Z,8.65
2022-12-11T09:31:56.072Z,8.60
2022-12-11T09:34:28.853Z,8.13
2022-12-11T09:36:59.651Z,8.80
2022-12-11T09:39:26.627Z,9.32
2022-12-11T09:42:05.977Z,9.60
2022-12-11T09:44:39.970Z,10.80
2022-12-11T09:47:59.554Z,10.57
2022-12-11T09:50:31.792Z,10.88
2022-12-11T09:53:23.751Z,9.82
2022-12-11T09:56:00.811Z,10.45
2022-12-11T09:59:01.638Z,12.88
2022-12-11T10:01:34.783Z,9.45
2022-12-11T10:04:10.692Z,9.57
2022-12-11T10:07:02.318Z,10.15
2022-12-11T10:09:46.919Z,8.13
2022-12-11T10:12:35.191Z,8.95
2022-12-11T10:15:25.301Z,10.45
2022-12-11T10:17:59.909Z,12.25
2022-12-11T10:20:36.369Z,11.27
2022-12-11T10:23:06.616Z,10.38
2022-12-11T10:25:43.451Z,10.02
2022-12-11T10:28:16.216Z,10.73
2022-12-11T10:31:04.771Z,9.43
2022-12-11T10:34:04.331Z,9.60
2022-12-11T10:36:39.994Z,11.05
2022-12-11T10:39:21.144Z,10.65
2022-12-11T10:41:54.083Z,12.15
2022-12-11T10:44:26.692Z,12.70
2022-12-11T10:47:10.217Z,12.45
2022-12-11T10:49:39.254Z,11.60
2022-12-11T10:52:12.847Z,11.83
2022-12-11T10:54:47.109Z,11.05
2022-12-11T10:57:15.431Z,8.73
2022-12-11T10:59:51.036Z,6.60
2022-12-11T11:02:29.218Z,7.50
2022-12-11T11:04:58.501Z,7.28
2022-12-11T11:07:49.339Z,6.63
2022-12-11T11:10:18.381Z,7.78
2022-12-11T11:13:02.409Z,7.65
2022-12-11T11:15:31.112Z,7.10
2022-12-11T11:18:12.732Z,7.90
2022-12-11T11:20:47.450Z,8.68
2022-12-11T11:23:16.604Z,9.63
2022-12-11T11:26:01.519Z,10.15
2022-12-11T11:28:38.305Z,9.80
2022-12-11T11:31:13.142Z,11.15
2022-12-11T11:34:07.512Z,11.13
2022-12-11T11:36:38.817Z,11.00
2022-12-11T11:39:41.137Z,10.05
2022-12-11T11:42:19.126Z,10.15
2022-12-11T11:45:17.572Z,13.55
2022-12-11T11:48:30.017Z,10.10
2022-12-11T11:50:58.580Z,9.55
2022-12-11T11:53:37.211Z,10.23
2022-12-11T11:56:11.163Z,11.02
2022-12-11T11:58:52.163Z,12.20
2022-12-11T12:01:20.945Z,12.30
2022-12-11T12:03:52.418Z,11.65
2022-12-11T12:06:34.611Z,11.05
2022-12-11T12:09:33.327Z,12.25
2022-12-11T12:12:37.484Z,12.50
2022-12-11T12:15:27.374Z,10.55
2022-12-11T12:18:15.175Z,10.18
2022-12-11T12:20:42.828Z,10.27
2022-12-11T12:24:04.937Z,10.77
2022-12-11T12:26:36.733Z,10.00
2022-12-11T12:29:28.878Z,10.32
2022-12-11T12:32:21.622Z,9.57
2022-12-11T12:35:09.544Z,9.05
2022-12-11T12:37:55.293Z,9.18
2022-12-11T12:40:59.682Z,9.18
2022-12-11T12:43:44.875Z,8.07
2022-12-11T12:46:36.220Z,7.50
2022-12-11T12:49:05.539Z,7.20
2022-12-11T12:51:33.391Z,8.45
2022-12-11T12:54:09.100Z,7.82
2022-12-11T12:56:52.581Z,9.13
2022-12-11T12:59:26.124Z,7.28
2022-12-11T13:02:03.221Z,8.82
2022-12-11T13:04:55.837Z,6.55
2022-12-11T13:07:31.453Z,6.03
2022-12-11T13:10:07.144Z,5.47
2022-12-11T13:12:56.042Z,5.00
2022-12-11T13:15:35.049Z,4.82
2022-12-11T13:18:13.756Z,5.20
2022-12-11T13:20:51.997Z,6.43
2022-12-11T13:23:29.313Z,6.75
2022-12-11T13:26:04.976Z,5.85
2022-12-11T13:28:55.434Z,6.10
2022-12-11T13:31:44.720Z,5.22
2022-12-11T13:34:24.120Z,5.68
2022-12-11T13:36:59.206Z,8.13
2022-12-11T13:39:38.128Z,6.70
2022-12-11T13:42:11.820Z,7.57
2022-12-11T13:44:42.546Z,7.38
2022-12-11T13:47:14.900Z,6.82
2022-12-11T13:49:45.957Z,6.28
2022-12-11T13:52:20.469Z,6.32
2022-12-11T13:54:50.663Z,5.88
2022-12-11T13:57:23.586Z,6.65
2022-12-11T13:59:55.439Z,7.13
2022-12-11T14:02:42.908Z,7.55
2022-12-11T14:05:13.936Z,7.53
2022-12-11T14:07:50.196Z,9.07
2022-12-11T14:10:35.818Z,8.10
2022-12-11T14:13:06.650Z,6.65
2022-12-11T14:15:36.454Z,6.07
2022-12-11T14:20:34.978Z,6.60
2022-12-11T14:23:29.951Z,6.82
2022-12-11T14:26:02.064Z,6.60
2022-12-11T14:28:35.676Z,5.35
2022-12-11T14:31:05.151Z,5.18
2022-12-11T14:33:38.849Z,5.65
2022-12-11T14:36:07.707Z,5.93
2022-12-11T14:53:46.787Z,7.28
2022-12-11T14:56:22.889Z,6.88
2022-12-11T14:58:56.809Z,7.10
2022-12-11T15:01:30.203Z,8.30
2022-12-11T15:04:19.963Z,7.65
2022-12-11T15:06:48.801Z,9.37
2022-12-11T15:09:26.345Z,9.07
2022-12-11T15:11:56.208Z,9.55
2022-12-11T15:16:53.965Z,7.68
2022-12-11T15:19:30.824Z,8.55
2022-12-11T15:34:00.547Z,10.18
2022-12-11T15:42:17.873Z,11.00
2022-12-11T16:12:40.699Z,46.78
2022-12-11T16:59:29.037Z,7.67
2022-12-11T17:02:08.981Z,7.63
2022-12-11T17:08:28.059Z,8.02
2022-12-11T17:48:43.307Z,11.13
2022-12-11T17:51:13.252Z,9.68
2022-12-11T17:53:41.003Z,8.40
2022-12-11T17:56:10.104Z,9.45
2022-12-11T17:58:38.482Z,9.13
2022-12-11T18:01:13.590Z,9.52
2022-12-11T18:03:42.942Z,9.10
2022-12-11T18:06:13.636Z,8.73
2022-12-11T18:08:42.138Z,9.02
2022-12-11T18:11:12.638Z,9.40
2022-12-11T18:13:40.032Z,9.57
2022-12-11T18:16:30.276Z,9.82
2022-12-11T18:19:05.983Z,9.55
2022-12-11T18:21:35.411Z,8.88
2022-12-11T18:24:03.208Z,9.82
2022-12-11T18:26:33.385Z,8.32
2022-12-11T18:29:00.509Z,8.52
2022-12-11T18:31:27.432Z,8.52
2022-12-11T18:33:54.482Z,9.43
2022-12-11T18:36:22.108Z,8.68
2022-12-11T18:38:49.818Z,9.20
2022-12-11T18:41:18.363Z,8.55
2022-12-11T18:43:47.446Z,10.52
2022-12-11T18:46:17.783Z,9.82
2022-12-11T18:48:46.077Z,8.98
2022-12-11T18:51:19.306Z,11.23
2022-12-11T18:53:46.370Z,10.18
2022-12-11T18:56:17.229Z,9.75
2022-12-11T18:58:45.160Z,9.05
2022-12-11T19:01:22.356Z,9.10
2022-12-11T19:03:51.352Z,19.80
2022-12-11T19:06:23.924Z,8.80
2022-12-11T19:08:51.803Z,9.50
2022-12-11T19:11:22.125Z,9.48
2022-12-11T19:13:50.147Z,9.38
2022-12-11T19:16:30.851Z,9.63
2022-12-11T19:19:01.672Z,7.20
2022-12-11T19:21:39.749Z,6.80
2022-12-11T19:24:20.977Z,6.65
2022-12-11T19:26:53.875Z,6.68
2022-12-11T19:29:25.259Z,6.22
2022-12-11T19:31:59.031Z,6.30
2022-12-11T19:34:30.221Z,6.95
2022-12-11T19:37:11.224Z,7.00
2022-12-11T19:39:43.904Z,7.85
2022-12-11T19:42:36.729Z,7.47
2022-12-11T19:45:21.047Z,8.52
2022-12-11T19:48:05.887Z,7.25
2022-12-11T19:50:50.650Z,8.15
2022-12-11T19:56:29.903Z,8.60
2022-12-11T20:11:49.044Z,8.82
2022-12-11T20:14:28.448Z,8.73
2022-12-11T20:17:12.365Z,9.07
2022-12-11T20:19:46.862Z,9.85
2022-12-11T20:22:18.037Z,9.48
2022-12-11T20:24:47.975Z,9.65
2022-12-11T20:27:20.671Z,9.60
2022-12-11T20:29:58.570Z,9.05
2022-12-11T20:32:32.448Z,8.68
2022-12-11T20:35:01.054Z,8.82
2022-12-11T20:37:30.670Z,9.20
2022-12-11T20:42:51.279Z,8.23
2022-12-11T20:45:22.790Z,7.47
2022-12-11T20:47:58.200Z,8.18
2022-12-11T20:50:28.278Z,7.65
2022-12-11T20:53:01.518Z,6.90
2022-12-11T20:55:59.589Z,7.38
2022-12-11T20:58:39.990Z,6.68
2022-12-11T21:01:29.138Z,6.28
2022-12-11T21:04:10.470Z,5.78
2022-12-11T21:06:50.647Z,6.47
2022-12-11T21:09:47.576Z,7.03
2022-12-11T21:12:45.163Z,6.22
2022-12-11T21:15:35.597Z,6.30
2022-12-11T21:18:15.373Z,6.78
2022-12-11T21:20:48.241Z,6.32
2022-12-11T21:23:18.578Z,5.60
2022-12-11T21:26:07.771Z,6.65
2022-12-11T21:28:46.555Z,6.57
2022-12-11T21:31:16.712Z,7.28
2022-12-11T21:33:44.950Z,7.57
2022-12-11T21:36:14.869Z,7.32
2022-12-11T21:38:43.671Z,6.93
2022-12-11T21:41:24.087Z,6.70
2022-12-11T21:44:56.530Z,7.03
2022-12-11T21:46:40.542Z,7.47
2022-12-11T21:49:08.540Z,7.00
2022-12-11T21:51:43.916Z,6.38
2022-12-11T21:54:15.747Z,6.15
2022-12-11T21:56:43.090Z,6.05
2022-12-11T21:59:10.637Z,6.30
2022-12-11T22:01:42.289Z,5.47
2022-12-11T22:04:10.818Z,5.20
2022-12-11T22:06:39.944Z,5.82
2022-12-11T22:09:07.145Z,5.75
2022-12-11T22:11:35.226Z,5.75
2022-12-11T22:14:03.010Z,5.80
2022-12-11T22:16:34.229Z,6.00
2022-12-11T22:19:01.672Z,6.18
2022-12-11T22:21:28.836Z,6.10
2022-12-11T22:23:56.602Z,6.07
2022-12-11T22:26:26.735Z,6.38
2022-12-11T22:28:55.479Z,6.32
2022-12-11T22:31:24.642Z,7.85
2022-12-11T22:33:55.743Z,6.95
2022-12-11T22:36:25.414Z,6.72
2022-12-11T22:38:53.063Z,6.57
2022-12-11T22:41:26.603Z,10.15
2022-12-11T22:43:54.537Z,11.95
2022-12-11T22:46:24.742Z,12.07
2022-12-11T22:48:52.435Z,7.80
2022-12-11T22:51:20.374Z,6.88
2022-12-11T22:53:47.951Z,6.20
2022-12-11T22:56:15.060Z,6.47
2022-12-11T22:58:42.847Z,6.03
2022-12-11T23:01:12.619Z,5.72
2022-12-11T23:03:40.055Z,5.72
2022-12-11T23:06:08.473Z,5.93
2022-12-11T23:08:36.563Z,5.43
2022-12-11T23:11:14.202Z,5.40
2022-12-11T23:13:41.734Z,5.50
2022-12-11T23:16:09.932Z,5.75
2022-12-11T23:18:37.098Z,5.60
2022-12-11T23:21:04.360Z,5.55
2022-12-11T23:23:31.583Z,5.38
2022-12-11T23:25:59.188Z,5.40
2022-12-11T23:28:26.350Z,5.57
2022-12-11T23:30:53.372Z,5.40
2022-12-11T23:33:20.350Z,5.85
2022-12-11T23:35:47.510Z,5.85
2022-12-11T23:38:15.999Z,5.75
2022-12-11T23:40:43.065Z,5.10
2022-12-11T23:43:10.366Z,5.72
2022-12-11T23:45:37.367Z,6.45
2022-12-11T23:48:04.747Z,6.88
2022-12-11T23:50:32.957Z,6.97
2022-12-11T23:53:00.576Z,7.07
2022-12-11T23:55:27.881Z,6.38
2022-12-11T23:57:56.224Z,6.68
